sensor_id;sensor_type;location;lat;lon;timestamp;P1;durP1;ratioP1;P2;durP2;ratioP2
9559;SDS011;4818;50.860;4.648;2023-07-20T00:00:52;6.75;;;1.52;;
9559;SDS011;4818;50.860;4.648;2023-07-20T00:03:19;2.47;;;0.77;;
9559;SDS011;4818;50.860;4.648;2023-07-20T00:05:48;5.43;;;0.82;;
9559;SDS011;4818;50.860;4.648;2023-07-20T00:08:15;4.05;;;0.70;;
9559;SDS011;4818;50.860;4.648;2023-07-20T00:10:42;3.85;;;1.00;;
9559;SDS011;4818;50.860;4.648;2023-07-20T00:13:09;4.43;;;0.85;;
9559;SDS011;4818;50.860;4.648;2023-07-20T00:15:35;7.13;;;1.38;;
9559;SDS011;4818;50.860;4.648;2023-07-20T00:18:03;1.65;;;0.63;;
9559;SDS011;4818;50.860;4.648;2023-07-20T00:20:29;6.65;;;1.40;;
9559;SDS011;4818;50.860;4.648;2023-07-20T00:22:55;3.92;;;0.93;;
9559;SDS011;4818;50.860;4.648;2023-07-20T00:25:23;3.55;;;1.20;;
9559;SDS011;4818;50.860;4.648;2023-07-20T00:27:49;2.15;;;1.00;;
9559;SDS011;4818;50.860;4.648;2023-07-20T00:30:15;9.65;;;1.05;;
9559;SDS011;4818;50.860;4.648;2023-07-20T00:32:42;6.50;;;0.85;;
9559;SDS011;4818;50.860;4.648;2023-07-20T00:35:08;7.63;;;1.15;;
9559;SDS011;4818;50.860;4.648;2023-07-20T00:37:36;4.30;;;1.25;;
9559;SDS011;4818;50.860;4.648;2023-07-20T00:40:02;8.60;;;1.05;;
9559;SDS011;4818;50.860;4.648;2023-07-20T00:42:34;5.50;;;1.10;;
9559;SDS011;4818;50.860;4.648;2023-07-20T00:45:01;6.63;;;0.98;;
9559;SDS011;4818;50.860;4.648;2023-07-20T00:47:27;3.45;;;0.60;;
9559;SDS011;4818;50.860;4.648;2023-07-20T00:49:53;7.50;;;0.90;;
9559;SDS011;4818;50.860;4.648;2023-07-20T00:52:23;2.95;;;0.60;;
9559;SDS011;4818;50.860;4.648;2023-07-20T00:54:49;4.25;;;1.38;;
9559;SDS011;4818;50.860;4.648;2023-07-20T00:57:16;3.58;;;0.90;;
9559;SDS011;4818;50.860;4.648;2023-07-20T00:59:43;2.97;;;0.90;;
9559;SDS011;4818;50.860;4.648;2023-07-20T01:02:09;2.20;;;0.63;;
9559;SDS011;4818;50.860;4.648;2023-07-20T01:04:35;5.35;;;0.70;;
9559;SDS011;4818;50.860;4.648;2023-07-20T01:09:45;3.67;;;1.15;;
9559;SDS011;4818;50.860;4.648;2023-07-20T01:12:18;8.88;;;1.05;;
9559;SDS011;4818;50.860;4.648;2023-07-20T01:14:48;6.00;;;0.85;;
9559;SDS011;4818;50.860;4.648;2023-07-20T01:17:14;5.97;;;1.13;;
9559;SDS011;4818;50.860;4.648;2023-07-20T01:19:40;5.40;;;0.95;;
9559;SDS011;4818;50.860;4.648;2023-07-20T01:22:21;4.93;;;0.93;;
9559;SDS011;4818;50.860;4.648;2023-07-20T01:27:42;1.45;;;0.60;;
9559;SDS011;4818;50.860;4.648;2023-07-20T01:32:57;6.00;;;1.10;;
9559;SDS011;4818;50.860;4.648;2023-07-20T01:35:29;4.80;;;1.00;;
9559;SDS011;4818;50.860;4.648;2023-07-20T01:37:56;6.78;;;1.27;;
9559;SDS011;4818;50.860;4.648;2023-07-20T01:40:23;4.60;;;1.70;;
9559;SDS011;4818;50.860;4.648;2023-07-20T01:42:50;5.28;;;1.30;;
9559;SDS011;4818;50.860;4.648;2023-07-20T01:45:17;8.55;;;1.70;;
9559;SDS011;4818;50.860;4.648;2023-07-20T01:47:43;6.28;;;1.40;;
9559;SDS011;4818;50.860;4.648;2023-07-20T01:50:09;7.68;;;1.67;;
9559;SDS011;4818;50.860;4.648;2023-07-20T01:52:36;7.40;;;1.45;;
9559;SDS011;4818;50.860;4.648;2023-07-20T01:55:02;6.55;;;1.48;;
9559;SDS011;4818;50.860;4.648;2023-07-20T01:57:29;8.10;;;1.17;;
9559;SDS011;4818;50.860;4.648;2023-07-20T01:59:55;6.35;;;1.48;;
9559;SDS011;4818;50.860;4.648;2023-07-20T02:02:23;5.22;;;1.38;;
9559;SDS011;4818;50.860;4.648;2023-07-20T02:04:49;8.20;;;1.88;;
9559;SDS011;4818;50.860;4.648;2023-07-20T02:07:16;6.57;;;1.17;;
9559;SDS011;4818;50.860;4.648;2023-07-20T02:09:42;7.25;;;2.10;;
9559;SDS011;4818;50.860;4.648;2023-07-20T02:12:08;7.72;;;2.20;;
9559;SDS011;4818;50.860;4.648;2023-07-20T02:14:34;6.82;;;1.38;;
9559;SDS011;4818;50.860;4.648;2023-07-20T02:17:00;8.68;;;1.77;;
9559;SDS011;4818;50.860;4.648;2023-07-20T02:19:26;10.57;;;1.92;;
9559;SDS011;4818;50.860;4.648;2023-07-20T02:21:53;10.77;;;1.83;;
9559;SDS011;4818;50.860;4.648;2023-07-20T02:24:19;10.00;;;2.10;;
9559;SDS011;4818;50.860;4.648;2023-07-20T02:26:45;7.43;;;1.60;;
9559;SDS011;4818;50.860;4.648;2023-07-20T02:29:12;9.27;;;2.15;;
9559;SDS011;4818;50.860;4.648;2023-07-20T02:31:38;6.65;;;2.28;;
9559;SDS011;4818;50.860;4.648;2023-07-20T02:34:05;9.55;;;1.85;;
9559;SDS011;4818;50.860;4.648;2023-07-20T02:36:31;14.30;;;2.28;;
9559;SDS011;4818;50.860;4.648;2023-07-20T02:39:01;13.35;;;3.00;;
9559;SDS011;4818;50.860;4.648;2023-07-20T02:41:30;12.27;;;2.67;;
9559;SDS011;4818;50.860;4.648;2023-07-20T02:43:56;12.70;;;2.13;;
9559;SDS011;4818;50.860;4.648;2023-07-20T02:46:23;6.95;;;2.13;;
9559;SDS011;4818;50.860;4.648;2023-07-20T02:48:49;8.43;;;2.85;;
9559;SDS011;4818;50.860;4.648;2023-07-20T02:51:15;8.82;;;1.70;;
9559;SDS011;4818;50.860;4.648;2023-07-20T02:53:41;8.57;;;2.55;;
9559;SDS011;4818;50.860;4.648;2023-07-20T02:56:07;8.00;;;2.55;;
9559;SDS011;4818;50.860;4.648;2023-07-20T02:58:34;7.13;;;2.08;;
9559;SDS011;4818;50.860;4.648;2023-07-20T03:01:02;14.65;;;3.05;;
9559;SDS011;4818;50.860;4.648;2023-07-20T03:03:42;6.70;;;2.80;;
9559;SDS011;4818;50.860;4.648;2023-07-20T03:06:12;6.30;;;2.58;;
9559;SDS011;4818;50.860;4.648;2023-07-20T03:08:40;9.52;;;2.92;;
9559;SDS011;4818;50.860;4.648;2023-07-20T03:11:07;11.57;;;2.65;;
9559;SDS011;4818;50.860;4.648;2023-07-20T03:13:33;5.63;;;2.35;;
9559;SDS011;4818;50.860;4.648;2023-07-20T03:15:59;14.43;;;3.72;;
9559;SDS011;4818;50.860;4.648;2023-07-20T03:18:25;12.02;;;4.13;;
9559;SDS011;4818;50.860;4.648;2023-07-20T03:20:51;8.52;;;2.45;;
9559;SDS011;4818;50.860;4.648;2023-07-20T03:23:18;13.82;;;3.28;;
9559;SDS011;4818;50.860;4.648;2023-07-20T03:25:44;9.05;;;2.92;;
9559;SDS011;4818;50.860;4.648;2023-07-20T03:28:10;13.82;;;3.60;;
9559;SDS011;4818;50.860;4.648;2023-07-20T03:30:36;12.48;;;3.47;;
9559;SDS011;4818;50.860;4.648;2023-07-20T03:33:02;11.07;;;3.53;;
9559;SDS011;4818;50.860;4.648;2023-07-20T03:35:29;10.63;;;3.70;;
9559;SDS011;4818;50.860;4.648;2023-07-20T03:37:56;8.32;;;3.72;;
9559;SDS011;4818;50.860;4.648;2023-07-20T03:40:22;11.38;;;3.53;;
9559;SDS011;4818;50.860;4.648;2023-07-20T03:42:49;14.25;;;4.53;;
9559;SDS011;4818;50.860;4.648;2023-07-20T03:45:15;13.25;;;3.85;;
9559;SDS011;4818;50.860;4.648;2023-07-20T03:47:41;12.40;;;4.88;;
9559;SDS011;4818;50.860;4.648;2023-07-20T03:50:09;13.48;;;4.57;;
9559;SDS011;4818;50.860;4.648;2023-07-20T03:52:36;10.80;;;3.90;;
9559;SDS011;4818;50.860;4.648;2023-07-20T03:55:02;11.02;;;5.00;;
9559;SDS011;4818;50.860;4.648;2023-07-20T03:57:28;14.35;;;4.13;;
9559;SDS011;4818;50.860;4.648;2023-07-20T03:59:58;9.30;;;3.97;;
9559;SDS011;4818;50.860;4.648;2023-07-20T04:02:24;11.30;;;5.07;;
9559;SDS011;4818;50.860;4.648;2023-07-20T04:04:50;19.95;;;5.45;;
9559;SDS011;4818;50.860;4.648;2023-07-20T04:07:17;11.55;;;4.88;;
9559;SDS011;4818;50.860;4.648;2023-07-20T04:09:43;10.43;;;4.63;;
9559;SDS011;4818;50.860;4.648;2023-07-20T04:12:09;11.48;;;5.65;;
9559;SDS011;4818;50.860;4.648;2023-07-20T04:14:35;13.95;;;5.55;;
9559;SDS011;4818;50.860;4.648;2023-07-20T04:17:01;16.83;;;7.40;;
9559;SDS011;4818;50.860;4.648;2023-07-20T04:19:28;10.73;;;4.07;;
9559;SDS011;4818;50.860;4.648;2023-07-20T04:21:55;12.18;;;5.30;;
9559;SDS011;4818;50.860;4.648;2023-07-20T04:24:21;10.98;;;4.07;;
9559;SDS011;4818;50.860;4.648;2023-07-20T04:26:47;13.95;;;5.55;;
9559;SDS011;4818;50.860;4.648;2023-07-20T04:29:13;11.90;;;6.00;;
9559;SDS011;4818;50.860;4.648;2023-07-20T04:31:39;12.27;;;5.50;;
9559;SDS011;4818;50.860;4.648;2023-07-20T04:34:06;18.80;;;6.05;;
9559;SDS011;4818;50.860;4.648;2023-07-20T04:36:32;9.25;;;4.30;;
9559;SDS011;4818;50.860;4.648;2023-07-20T04:38:58;13.15;;;5.45;;
9559;SDS011;4818;50.860;4.648;2023-07-20T04:41:24;14.38;;;5.10;;
9559;SDS011;4818;50.860;4.648;2023-07-20T04:43:51;13.10;;;5.43;;
9559;SDS011;4818;50.860;4.648;2023-07-20T04:46:17;9.65;;;4.68;;
9559;SDS011;4818;50.860;4.648;2023-07-20T04:48:44;12.77;;;5.53;;
9559;SDS011;4818;50.860;4.648;2023-07-20T04:51:10;17.05;;;6.78;;
9559;SDS011;4818;50.860;4.648;2023-07-20T04:53:36;15.45;;;7.07;;
9559;SDS011;4818;50.860;4.648;2023-07-20T04:56:02;16.73;;;6.13;;
9559;SDS011;4818;50.860;4.648;2023-07-20T04:58:29;9.68;;;4.88;;
9559;SDS011;4818;50.860;4.648;2023-07-20T05:00:55;6.93;;;4.10;;
9559;SDS011;4818;50.860;4.648;2023-07-20T05:03:21;10.75;;;5.18;;
9559;SDS011;4818;50.860;4.648;2023-07-20T05:05:47;12.20;;;4.82;;
9559;SDS011;4818;50.860;4.648;2023-07-20T05:08:13;10.43;;;4.47;;
9559;SDS011;4818;50.860;4.648;2023-07-20T05:10:40;11.85;;;4.97;;
9559;SDS011;4818;50.860;4.648;2023-07-20T05:13:07;15.68;;;7.20;;
9559;SDS011;4818;50.860;4.648;2023-07-20T05:15:33;13.25;;;6.55;;
9559;SDS011;4818;50.860;4.648;2023-07-20T05:18:00;11.75;;;6.10;;
9559;SDS011;4818;50.860;4.648;2023-07-20T05:20:26;13.68;;;6.30;;
9559;SDS011;4818;50.860;4.648;2023-07-20T05:22:52;12.88;;;6.40;;
9559;SDS011;4818;50.860;4.648;2023-07-20T05:25:19;14.77;;;7.10;;
9559;SDS011;4818;50.860;4.648;2023-07-20T05:27:47;15.80;;;8.13;;
9559;SDS011;4818;50.860;4.648;2023-07-20T05:30:13;10.32;;;6.78;;
9559;SDS011;4818;50.860;4.648;2023-07-20T05:32:39;12.45;;;6.47;;
9559;SDS011;4818;50.860;4.648;2023-07-20T05:35:06;11.13;;;6.60;;
9559;SDS011;4818;50.860;4.648;2023-07-20T05:37:33;9.63;;;6.03;;
9559;SDS011;4818;50.860;4.648;2023-07-20T05:39:59;14.15;;;7.63;;
9559;SDS011;4818;50.860;4.648;2023-07-20T05:42:26;12.38;;;6.97;;
9559;SDS011;4818;50.860;4.648;2023-07-20T05:44:52;19.80;;;8.20;;
9559;SDS011;4818;50.860;4.648;2023-07-20T05:47:20;11.88;;;8.68;;
9559;SDS011;4818;50.860;4.648;2023-07-20T05:49:46;19.52;;;9.45;;
9559;SDS011;4818;50.860;4.648;2023-07-20T05:52:13;17.48;;;9.23;;
9559;SDS011;4818;50.860;4.648;2023-07-20T05:54:39;21.35;;;9.20;;
9559;SDS011;4818;50.860;4.648;2023-07-20T05:57:05;18.67;;;8.82;;
9559;SDS011;4818;50.860;4.648;2023-07-20T05:59:31;14.18;;;9.05;;
9559;SDS011;4818;50.860;4.648;2023-07-20T06:01:57;11.82;;;7.03;;
9559;SDS011;4818;50.860;4.648;2023-07-20T06:04:24;19.45;;;8.90;;
9559;SDS011;4818;50.860;4.648;2023-07-20T06:06:50;9.77;;;6.53;;
9559;SDS011;4818;50.860;4.648;2023-07-20T06:09:16;16.35;;;8.43;;
9559;SDS011;4818;50.860;4.648;2023-07-20T06:11:42;8.38;;;5.07;;
9559;SDS011;4818;50.860;4.648;2023-07-20T06:14:08;15.35;;;8.10;;
9559;SDS011;4818;50.860;4.648;2023-07-20T06:16:35;12.60;;;6.75;;
9559;SDS011;4818;50.860;4.648;2023-07-20T06:19:01;11.45;;;7.68;;
9559;SDS011;4818;50.860;4.648;2023-07-20T06:21:27;19.08;;;8.85;;
9559;SDS011;4818;50.860;4.648;2023-07-20T06:23:54;12.82;;;7.82;;
9559;SDS011;4818;50.860;4.648;2023-07-20T06:26:20;19.17;;;8.05;;
9559;SDS011;4818;50.860;4.648;2023-07-20T06:28:46;15.73;;;8.10;;
9559;SDS011;4818;50.860;4.648;2023-07-20T06:31:12;10.93;;;7.40;;
9559;SDS011;4818;50.860;4.648;2023-07-20T06:33:39;11.20;;;6.85;;
9559;SDS011;4818;50.860;4.648;2023-07-20T06:36:05;12.10;;;8.10;;
9559;SDS011;4818;50.860;4.648;2023-07-20T06:38:31;13.15;;;7.40;;
9559;SDS011;4818;50.860;4.648;2023-07-20T06:40:57;11.38;;;7.53;;
9559;SDS011;4818;50.860;4.648;2023-07-20T06:43:23;18.08;;;7.97;;
9559;SDS011;4818;50.860;4.648;2023-07-20T06:45:53;16.45;;;8.93;;
9559;SDS011;4818;50.860;4.648;2023-07-20T06:48:19;11.93;;;6.57;;
9559;SDS011;4818;50.860;4.648;2023-07-20T06:50:46;11.00;;;7.07;;
9559;SDS011;4818;50.860;4.648;2023-07-20T06:53:12;12.07;;;7.80;;
9559;SDS011;4818;50.860;4.648;2023-07-20T06:55:39;9.18;;;6.82;;
9559;SDS011;4818;50.860;4.648;2023-07-20T06:58:05;13.80;;;8.18;;
9559;SDS011;4818;50.860;4.648;2023-07-20T07:00:31;13.27;;;8.77;;
9559;SDS011;4818;50.860;4.648;2023-07-20T07:02:57;12.15;;;8.90;;
9559;SDS011;4818;50.860;4.648;2023-07-20T07:05:23;12.98;;;8.13;;
9559;SDS011;4818;50.860;4.648;2023-07-20T07:07:49;9.65;;;7.18;;
9559;SDS011;4818;50.860;4.648;2023-07-20T07:10:16;13.13;;;8.68;;
9559;SDS011;4818;50.860;4.648;2023-07-20T07:12:43;9.77;;;7.82;;
9559;SDS011;4818;50.860;4.648;2023-07-20T07:15:09;10.30;;;7.60;;
9559;SDS011;4818;50.860;4.648;2023-07-20T07:17:36;11.20;;;8.23;;
9559;SDS011;4818;50.860;4.648;2023-07-20T07:20:02;17.13;;;8.15;;
9559;SDS011;4818;50.860;4.648;2023-07-20T07:22:29;10.88;;;6.32;;
9559;SDS011;4818;50.860;4.648;2023-07-20T07:24:55;9.93;;;5.78;;
9559;SDS011;4818;50.860;4.648;2023-07-20T07:27:22;11.48;;;5.18;;
9559;SDS011;4818;50.860;4.648;2023-07-20T07:29:48;6.03;;;4.90;;
9559;SDS011;4818;50.860;4.648;2023-07-20T07:32:15;8.40;;;5.65;;
9559;SDS011;4818;50.860;4.648;2023-07-20T07:34:41;6.57;;;3.78;;
9559;SDS011;4818;50.860;4.648;2023-07-20T07:37:07;6.00;;;3.33;;
9559;SDS011;4818;50.860;4.648;2023-07-20T07:39:33;7.15;;;3.47;;
9559;SDS011;4818;50.860;4.648;2023-07-20T07:42:00;7.85;;;3.88;;
9559;SDS011;4818;50.860;4.648;2023-07-20T07:44:26;6.35;;;2.88;;
9559;SDS011;4818;50.860;4.648;2023-07-20T07:46:53;3.28;;;2.97;;
9559;SDS011;4818;50.860;4.648;2023-07-20T07:49:19;5.90;;;3.80;;
9559;SDS011;4818;50.860;4.648;2023-07-20T07:51:45;5.28;;;3.20;;
9559;SDS011;4818;50.860;4.648;2023-07-20T07:54:11;3.90;;;2.58;;
9559;SDS011;4818;50.860;4.648;2023-07-20T07:56:37;7.25;;;3.95;;
9559;SDS011;4818;50.860;4.648;2023-07-20T07:59:04;5.05;;;4.00;;
9559;SDS011;4818;50.860;4.648;2023-07-20T08:01:30;4.15;;;2.65;;
9559;SDS011;4818;50.860;4.648;2023-07-20T08:03:56;5.25;;;2.90;;
9559;SDS011;4818;50.860;4.648;2023-07-20T08:06:22;5.13;;;2.50;;
9559;SDS011;4818;50.860;4.648;2023-07-20T08:08:49;3.35;;;1.50;;
9559;SDS011;4818;50.860;4.648;2023-07-20T08:11:16;4.55;;;2.35;;
9559;SDS011;4818;50.860;4.648;2023-07-20T08:13:43;2.58;;;1.60;;
9559;SDS011;4818;50.860;4.648;2023-07-20T08:16:09;2.92;;;1.90;;
9559;SDS011;4818;50.860;4.648;2023-07-20T08:18:35;5.10;;;1.73;;
9559;SDS011;4818;50.860;4.648;2023-07-20T08:21:01;2.72;;;1.00;;
9559;SDS011;4818;50.860;4.648;2023-07-20T08:23:28;3.38;;;1.13;;
9559;SDS011;4818;50.860;4.648;2023-07-20T08:25:54;3.85;;;1.15;;
9559;SDS011;4818;50.860;4.648;2023-07-20T08:28:21;3.67;;;2.25;;
9559;SDS011;4818;50.860;4.648;2023-07-20T08:30:47;2.03;;;0.70;;
9559;SDS011;4818;50.860;4.648;2023-07-20T08:33:14;2.53;;;0.73;;
9559;SDS011;4818;50.860;4.648;2023-07-20T08:35:41;1.10;;;0.57;;
9559;SDS011;4818;50.860;4.648;2023-07-20T08:38:07;1.52;;;0.40;;
9559;SDS011;4818;50.860;4.648;2023-07-20T08:40:38;4.82;;;1.70;;
9559;SDS011;4818;50.860;4.648;2023-07-20T08:43:04;2.05;;;0.70;;
9559;SDS011;4818;50.860;4.648;2023-07-20T08:45:32;5.00;;;1.60;;
9559;SDS011;4818;50.860;4.648;2023-07-20T08:47:59;2.13;;;0.90;;
9559;SDS011;4818;50.860;4.648;2023-07-20T08:50:28;2.45;;;0.88;;
9559;SDS011;4818;50.860;4.648;2023-07-20T08:52:56;2.80;;;1.00;;
9559;SDS011;4818;50.860;4.648;2023-07-20T08:55:24;2.60;;;0.95;;
9559;SDS011;4818;50.860;4.648;2023-07-20T08:57:52;3.05;;;0.95;;
9559;SDS011;4818;50.860;4.648;2023-07-20T09:00:19;1.48;;;0.98;;
9559;SDS011;4818;50.860;4.648;2023-07-20T09:02:46;2.35;;;1.17;;
9559;SDS011;4818;50.860;4.648;2023-07-20T09:05:12;2.17;;;1.02;;
9559;SDS011;4818;50.860;4.648;2023-07-20T09:07:39;1.85;;;0.75;;
9559;SDS011;4818;50.860;4.648;2023-07-20T09:10:06;2.17;;;0.70;;
9559;SDS011;4818;50.860;4.648;2023-07-20T09:12:36;2.50;;;0.57;;
9559;SDS011;4818;50.860;4.648;2023-07-20T09:15:03;1.40;;;0.50;;
9559;SDS011;4818;50.860;4.648;2023-07-20T09:17:29;0.70;;;0.45;;
9559;SDS011;4818;50.860;4.648;2023-07-20T09:19:56;2.20;;;0.50;;
9559;SDS011;4818;50.860;4.648;2023-07-20T09:22:26;1.10;;;0.40;;
9559;SDS011;4818;50.860;4.648;2023-07-20T09:24:55;1.70;;;0.60;;
9559;SDS011;4818;50.860;4.648;2023-07-20T09:27:22;1.58;;;0.40;;
9559;SDS011;4818;50.860;4.648;2023-07-20T09:29:51;1.33;;;0.52;;
9559;SDS011;4818;50.860;4.648;2023-07-20T09:32:21;1.48;;;0.40;;
9559;SDS011;4818;50.860;4.648;2023-07-20T09:34:49;4.43;;;0.40;;
9559;SDS011;4818;50.860;4.648;2023-07-20T09:37:22;0.95;;;0.40;;
9559;SDS011;4818;50.860;4.648;2023-07-20T09:39:48;0.93;;;0.30;;
9559;SDS011;4818;50.860;4.648;2023-07-20T09:42:17;0.93;;;0.30;;
9559;SDS011;4818;50.860;4.648;2023-07-20T09:44:44;1.15;;;0.40;;
9559;SDS011;4818;50.860;4.648;2023-07-20T09:47:10;1.40;;;0.30;;
9559;SDS011;4818;50.860;4.648;2023-07-20T09:49:40;2.25;;;0.50;;
9559;SDS011;4818;50.860;4.648;2023-07-20T09:52:08;1.38;;;0.20;;
9559;SDS011;4818;50.860;4.648;2023-07-20T09:54:36;0.50;;;0.30;;
9559;SDS011;4818;50.860;4.648;2023-07-20T09:57:03;1.00;;;0.30;;
9559;SDS011;4818;50.860;4.648;2023-07-20T09:59:30;0.88;;;0.50;;
9559;SDS011;4818;50.860;4.648;2023-07-20T10:01:57;2.28;;;0.28;;
9559;SDS011;4818;50.860;4.648;2023-07-20T10:04:27;1.35;;;0.40;;
9559;SDS011;4818;50.860;4.648;2023-07-20T10:06:54;1.17;;;0.30;;
9559;SDS011;4818;50.860;4.648;2023-07-20T10:09:21;0.55;;;0.15;;
9559;SDS011;4818;50.860;4.648;2023-07-20T10:11:49;3.90;;;0.30;;
9559;SDS011;4818;50.860;4.648;2023-07-20T10:14:16;1.10;;;0.40;;
9559;SDS011;4818;50.860;4.648;2023-07-20T10:19:20;1.17;;;0.30;;
9559;SDS011;4818;50.860;4.648;2023-07-20T10:21:55;0.52;;;0.20;;
9559;SDS011;4818;50.860;4.648;2023-07-20T10:24:23;0.70;;;0.40;;
9559;SDS011;4818;50.860;4.648;2023-07-20T10:26:49;0.50;;;0.20;;
9559;SDS011;4818;50.860;4.648;2023-07-20T10:29:16;0.70;;;0.20;;
9559;SDS011;4818;50.860;4.648;2023-07-20T10:31:43;1.05;;;0.20;;
9559;SDS011;4818;50.860;4.648;2023-07-20T10:34:09;2.22;;;0.20;;
9559;SDS011;4818;50.860;4.648;2023-07-20T10:36:43;0.90;;;0.20;;
9559;SDS011;4818;50.860;4.648;2023-07-20T10:41:43;0.77;;;0.20;;
9559;SDS011;4818;50.860;4.648;2023-07-20T10:44:09;1.20;;;0.40;;
9559;SDS011;4818;50.860;4.648;2023-07-20T10:49:06;0.93;;;0.20;;
9559;SDS011;4818;50.860;4.648;2023-07-20T10:51:40;2.20;;;0.20;;
9559;SDS011;4818;50.860;4.648;2023-07-20T10:56:49;0.75;;;0.30;;
9559;SDS011;4818;50.860;4.648;2023-07-20T10:59:19;1.00;;;0.20;;
9559;SDS011;4818;50.860;4.648;2023-07-20T11:01:46;0.82;;;0.20;;
9559;SDS011;4818;50.860;4.648;2023-07-20T11:04:15;0.82;;;0.20;;
9559;SDS011;4818;50.860;4.648;2023-07-20T11:09:14;2.05;;;0.20;;
9559;SDS011;4818;50.860;4.648;2023-07-20T11:11:42;1.38;;;0.52;;
9559;SDS011;4818;50.860;4.648;2023-07-20T11:14:10;0.50;;;0.20;;
9559;SDS011;4818;50.860;4.648;2023-07-20T11:19:03;0.95;;;0.20;;
9559;SDS011;4818;50.860;4.648;2023-07-20T11:21:36;0.40;;;0.20;;
9559;SDS011;4818;50.860;4.648;2023-07-20T11:24:04;0.75;;;0.20;;
9559;SDS011;4818;50.860;4.648;2023-07-20T11:26:30;0.82;;;0.30;;
9559;SDS011;4818;50.860;4.648;2023-07-20T11:28:57;0.93;;;0.28;;
9559;SDS011;4818;50.860;4.648;2023-07-20T11:31:24;1.08;;;0.30;;
9559;SDS011;4818;50.860;4.648;2023-07-20T11:33:50;0.50;;;0.20;;
9559;SDS011;4818;50.860;4.648;2023-07-20T11:36:17;1.52;;;0.40;;
9559;SDS011;4818;50.860;4.648;2023-07-20T11:38:43;1.40;;;0.40;;
9559;SDS011;4818;50.860;4.648;2023-07-20T11:41:12;0.73;;;0.20;;
9559;SDS011;4818;50.860;4.648;2023-07-20T11:43:38;1.83;;;0.20;;
9559;SDS011;4818;50.860;4.648;2023-07-20T11:46:05;0.70;;;0.20;;
9559;SDS011;4818;50.860;4.648;2023-07-20T11:48:31;1.00;;;0.28;;
9559;SDS011;4818;50.860;4.648;2023-07-20T11:50:57;1.83;;;0.30;;
9559;SDS011;4818;50.860;4.648;2023-07-20T11:53:24;0.40;;;0.20;;
9559;SDS011;4818;50.860;4.648;2023-07-20T11:55:51;1.25;;;0.20;;
9559;SDS011;4818;50.860;4.648;2023-07-20T11:58:18;2.75;;;0.30;;
9559;SDS011;4818;50.860;4.648;2023-07-20T12:00:44;1.73;;;0.20;;
9559;SDS011;4818;50.860;4.648;2023-07-20T12:03:11;1.15;;;0.20;;
9559;SDS011;4818;50.860;4.648;2023-07-20T12:05:38;1.75;;;0.30;;
9559;SDS011;4818;50.860;4.648;2023-07-20T12:08:04;2.00;;;0.20;;
9559;SDS011;4818;50.860;4.648;2023-07-20T12:10:31;0.85;;;0.20;;
9559;SDS011;4818;50.860;4.648;2023-07-20T12:13:03;0.45;;;0.30;;
9559;SDS011;4818;50.860;4.648;2023-07-20T12:15:29;1.73;;;0.30;;
9559;SDS011;4818;50.860;4.648;2023-07-20T12:17:57;1.00;;;0.10;;
9559;SDS011;4818;50.860;4.648;2023-07-20T12:20:25;0.77;;;0.30;;
9559;SDS011;4818;50.860;4.648;2023-07-20T12:22:51;1.95;;;0.25;;
9559;SDS011;4818;50.860;4.648;2023-07-20T12:25:19;0.85;;;0.40;;
9559;SDS011;4818;50.860;4.648;2023-07-20T12:27:45;0.68;;;0.17;;
9559;SDS011;4818;50.860;4.648;2023-07-20T12:30:12;1.17;;;0.20;;
9559;SDS011;4818;50.860;4.648;2023-07-20T12:32:42;0.45;;;0.20;;
9559;SDS011;4818;50.860;4.648;2023-07-20T12:35:08;0.85;;;0.20;;
9559;SDS011;4818;50.860;4.648;2023-07-20T12:37:36;1.13;;;0.20;;
9559;SDS011;4818;50.860;4.648;2023-07-20T12:40:03;1.15;;;0.20;;
9559;SDS011;4818;50.860;4.648;2023-07-20T12:42:29;1.88;;;0.20;;
9559;SDS011;4818;50.860;4.648;2023-07-20T12:44:55;1.20;;;0.20;;
9559;SDS011;4818;50.860;4.648;2023-07-20T12:47:21;1.55;;;0.10;;
9559;SDS011;4818;50.860;4.648;2023-07-20T12:49:48;1.38;;;0.20;;
9559;SDS011;4818;50.860;4.648;2023-07-20T12:52:14;3.33;;;0.20;;
9559;SDS011;4818;50.860;4.648;2023-07-20T12:54:40;2.08;;;0.28;;
9559;SDS011;4818;50.860;4.648;2023-07-20T12:57:06;1.80;;;0.15;;
9559;SDS011;4818;50.860;4.648;2023-07-20T12:59:32;0.47;;;0.20;;
9559;SDS011;4818;50.860;4.648;2023-07-20T13:01:59;0.40;;;0.20;;
9559;SDS011;4818;50.860;4.648;2023-07-20T13:04:26;0.47;;;0.20;;
9559;SDS011;4818;50.860;4.648;2023-07-20T13:06:52;2.00;;;0.20;;
9559;SDS011;4818;50.860;4.648;2023-07-20T13:09:18;0.73;;;0.20;;
9559;SDS011;4818;50.860;4.648;2023-07-20T13:11:44;0.68;;;0.15;;
9559;SDS011;4818;50.860;4.648;2023-07-20T13:14:11;0.45;;;0.20;;
9559;SDS011;4818;50.860;4.648;2023-07-20T13:16:37;1.05;;;0.20;;
9559;SDS011;4818;50.860;4.648;2023-07-20T13:19:03;1.80;;;0.43;;
9559;SDS011;4818;50.860;4.648;2023-07-20T13:21:29;0.50;;;0.20;;
9559;SDS011;4818;50.860;4.648;2023-07-20T13:23:56;0.70;;;0.20;;
9559;SDS011;4818;50.860;4.648;2023-07-20T13:26:22;0.57;;;0.20;;
9559;SDS011;4818;50.860;4.648;2023-07-20T13:28:48;1.92;;;0.30;;
9559;SDS011;4818;50.860;4.648;2023-07-20T13:31:14;0.50;;;0.30;;
9559;SDS011;4818;50.860;4.648;2023-07-20T13:33:42;0.68;;;0.22;;
9559;SDS011;4818;50.860;4.648;2023-07-20T13:36:08;0.60;;;0.20;;
9559;SDS011;4818;50.860;4.648;2023-07-20T13:38:35;2.15;;;0.30;;
9559;SDS011;4818;50.860;4.648;2023-07-20T13:41:01;1.30;;;0.30;;
9559;SDS011;4818;50.860;4.648;2023-07-20T13:43:27;1.13;;;0.40;;
9559;SDS011;4818;50.860;4.648;2023-07-20T13:45:54;2.67;;;0.25;;
9559;SDS011;4818;50.860;4.648;2023-07-20T13:48:20;0.88;;;0.50;;
9559;SDS011;4818;50.860;4.648;2023-07-20T13:50:48;2.38;;;0.30;;
9559;SDS011;4818;50.860;4.648;2023-07-20T13:53:14;1.65;;;0.30;;
9559;SDS011;4818;50.860;4.648;2023-07-20T13:55:41;1.15;;;0.30;;
9559;SDS011;4818;50.860;4.648;2023-07-20T13:58:09;1.00;;;0.35;;
9559;SDS011;4818;50.860;4.648;2023-07-20T14:00:35;2.00;;;0.35;;
9559;SDS011;4818;50.860;4.648;2023-07-20T14:03:02;3.20;;;0.30;;
9559;SDS011;4818;50.860;4.648;2023-07-20T14:05:28;1.95;;;0.50;;
9559;SDS011;4818;50.860;4.648;2023-07-20T14:07:54;1.27;;;0.32;;
9559;SDS011;4818;50.860;4.648;2023-07-20T14:10:20;2.85;;;0.55;;
9559;SDS011;4818;50.860;4.648;2023-07-20T14:12:47;3.03;;;0.43;;
9559;SDS011;4818;50.860;4.648;2023-07-20T14:15:13;1.08;;;0.40;;
9559;SDS011;4818;50.860;4.648;2023-07-20T14:17:39;0.90;;;0.20;;
9559;SDS011;4818;50.860;4.648;2023-07-20T14:20:05;1.67;;;0.43;;
9559;SDS011;4818;50.860;4.648;2023-07-20T14:22:33;0.30;;;0.20;;
9559;SDS011;4818;50.860;4.648;2023-07-20T14:24:59;0.73;;;0.20;;
9559;SDS011;4818;50.860;4.648;2023-07-20T14:27:25;1.10;;;0.30;;
9559;SDS011;4818;50.860;4.648;2023-07-20T14:29:52;2.38;;;0.38;;
9559;SDS011;4818;50.860;4.648;2023-07-20T14:32:18;1.10;;;0.30;;
9559;SDS011;4818;50.860;4.648;2023-07-20T14:34:44;0.77;;;0.30;;
9559;SDS011;4818;50.860;4.648;2023-07-20T14:37:11;0.80;;;0.30;;
9559;SDS011;4818;50.860;4.648;2023-07-20T14:39:38;0.88;;;0.40;;
9559;SDS011;4818;50.860;4.648;2023-07-20T14:42:04;1.15;;;0.20;;
9559;SDS011;4818;50.860;4.648;2023-07-20T14:44:32;0.60;;;0.20;;
9559;SDS011;4818;50.860;4.648;2023-07-20T14:46:59;0.38;;;0.20;;
9559;SDS011;4818;50.860;4.648;2023-07-20T14:49:26;0.45;;;0.20;;
9559;SDS011;4818;50.860;4.648;2023-07-20T14:51:52;1.00;;;0.40;;
9559;SDS011;4818;50.860;4.648;2023-07-20T14:54:18;3.05;;;0.40;;
9559;SDS011;4818;50.860;4.648;2023-07-20T14:56:51;2.45;;;0.30;;
9559;SDS011;4818;50.860;4.648;2023-07-20T14:59:18;0.90;;;0.20;;
9559;SDS011;4818;50.860;4.648;2023-07-20T15:01:44;0.82;;;0.30;;
9559;SDS011;4818;50.860;4.648;2023-07-20T15:04:14;0.30;;;0.20;;
9559;SDS011;4818;50.860;4.648;2023-07-20T15:09:09;2.55;;;0.40;;
9559;SDS011;4818;50.860;4.648;2023-07-20T15:11:36;1.95;;;0.40;;
9559;SDS011;4818;50.860;4.648;2023-07-20T15:14:06;0.95;;;0.30;;
9559;SDS011;4818;50.860;4.648;2023-07-20T15:16:38;0.50;;;0.20;;
9559;SDS011;4818;50.860;4.648;2023-07-20T15:19:16;1.38;;;0.30;;
9559;SDS011;4818;50.860;4.648;2023-07-20T15:21:42;1.95;;;0.30;;
9559;SDS011;4818;50.860;4.648;2023-07-20T15:24:30;0.80;;;0.30;;
9559;SDS011;4818;50.860;4.648;2023-07-20T15:26:58;0.38;;;0.25;;
9559;SDS011;4818;50.860;4.648;2023-07-20T15:29:30;2.03;;;0.38;;
9559;SDS011;4818;50.860;4.648;2023-07-20T15:32:00;1.95;;;0.20;;
9559;SDS011;4818;50.860;4.648;2023-07-20T15:34:29;0.93;;;0.20;;
9559;SDS011;4818;50.860;4.648;2023-07-20T15:36:55;0.80;;;0.30;;